sensor_id;sensor_type;location;lat;lon;timestamp;temperature;humidity
30244;DHT22;61465;53.652;9.792;2022-09-02T00:00:35;14.10;64.70
30244;DHT22;61465;53.652;9.792;2022-09-02T00:03:00;14.00;64.70
30244;DHT22;61465;53.652;9.792;2022-09-02T00:05:26;13.90;64.60
30244;DHT22;61465;53.652;9.792;2022-09-02T00:07:53;13.90;64.80
30244;DHT22;61465;53.652;9.792;2022-09-02T00:10:19;13.80;64.80
30244;DHT22;61465;53.652;9.792;2022-09-02T00:12:44;13.80;64.90
30244;DHT22;61465;53.652;9.792;2022-09-02T00:15:10;13.80;64.90
30244;DHT22;61465;53.652;9.792;2022-09-02T00:17:36;13.80;65.00
30244;DHT22;61465;53.652;9.792;2022-09-02T00:20:03;13.80;65.10
30244;DHT22;61465;53.652;9.792;2022-09-02T00:22:28;13.70;65.20
30244;DHT22;61465;53.652;9.792;2022-09-02T00:24:54;13.70;65.20
30244;DHT22;61465;53.652;9.792;2022-09-02T00:27:20;13.70;65.30
30244;DHT22;61465;53.652;9.792;2022-09-02T00:29:45;13.60;65.40
30244;DHT22;61465;53.652;9.792;2022-09-02T00:32:11;13.60;65.40
30244;DHT22;61465;53.652;9.792;2022-09-02T00:34:36;13.70;65.60
30244;DHT22;61465;53.652;9.792;2022-09-02T00:37:02;13.60;65.60
30244;DHT22;61465;53.652;9.792;2022-09-02T00:39:28;13.60;65.70
30244;DHT22;61465;53.652;9.792;2022-09-02T00:41:53;13.60;66.10
30244;DHT22;61465;53.652;9.792;2022-09-02T00:44:19;13.70;65.80
30244;DHT22;61465;53.652;9.792;2022-09-02T00:46:45;13.60;65.80
30244;DHT22;61465;53.652;9.792;2022-09-02T00:49:23;13.60;65.80
30244;DHT22;61465;53.652;9.792;2022-09-02T00:52:15;13.60;65.60
30244;DHT22;61465;53.652;9.792;2022-09-02T00:54:49;13.50;65.50
30244;DHT22;61465;53.652;9.792;2022-09-02T00:57:16;13.50;66.00
30244;DHT22;61465;53.652;9.792;2022-09-02T01:00:12;13.60;66.30
30244;DHT22;61465;53.652;9.792;2022-09-02T01:02:42;13.50;65.60
30244;DHT22;61465;53.652;9.792;2022-09-02T01:05:11;13.60;66.30
30244;DHT22;61465;53.652;9.792;2022-09-02T01:07:37;13.40;66.20
30244;DHT22;61465;53.652;9.792;2022-09-02T01:10:07;13.50;66.50
30244;DHT22;61465;53.652;9.792;2022-09-02T01:12:34;13.40;66.50
30244;DHT22;61465;53.652;9.792;2022-09-02T01:15:00;13.40;67.00
30244;DHT22;61465;53.652;9.792;2022-09-02T01:17:27;13.40;66.50
30244;DHT22;61465;53.652;9.792;2022-09-02T01:19:58;13.30;64.20
30244;DHT22;61465;53.652;9.792;2022-09-02T01:22:28;13.40;66.40
30244;DHT22;61465;53.652;9.792;2022-09-02T01:24:56;13.30;66.60
30244;DHT22;61465;53.652;9.792;2022-09-02T01:27:23;13.30;66.70
30244;DHT22;61465;53.652;9.792;2022-09-02T01:29:57;13.30;66.80
30244;DHT22;61465;53.652;9.792;2022-09-02T01:32:24;13.20;66.50
30244;DHT22;61465;53.652;9.792;2022-09-02T01:34:50;13.30;67.00
30244;DHT22;61465;53.652;9.792;2022-09-02T01:37:16;13.20;66.90
30244;DHT22;61465;53.652;9.792;2022-09-02T01:39:42;13.20;66.80
30244;DHT22;61465;53.652;9.792;2022-09-02T01:42:09;13.20;66.90
30244;DHT22;61465;53.652;9.792;2022-09-02T01:44:35;13.10;64.40
30244;DHT22;61465;53.652;9.792;2022-09-02T01:47:12;13.10;66.90
30244;DHT22;61465;53.652;9.792;2022-09-02T01:49:38;13.10;67.10
30244;DHT22;61465;53.652;9.792;2022-09-02T01:52:04;13.20;67.20
30244;DHT22;61465;53.652;9.792;2022-09-02T01:54:29;13.10;67.10
30244;DHT22;61465;53.652;9.792;2022-09-02T01:56:58;13.00;67.00
30244;DHT22;61465;53.652;9.792;2022-09-02T01:59:23;13.00;67.20
30244;DHT22;61465;53.652;9.792;2022-09-02T02:01:49;13.00;67.30
30244;DHT22;61465;53.652;9.792;2022-09-02T02:04:14;13.00;67.30
30244;DHT22;61465;53.652;9.792;2022-09-02T02:06:42;13.00;67.30
30244;DHT22;61465;53.652;9.792;2022-09-02T02:09:08;13.10;67.50
30244;DHT22;61465;53.652;9.792;2022-09-02T02:11:34;13.00;67.50
30244;DHT22;61465;53.652;9.792;2022-09-02T02:14:00;12.90;67.40
30244;DHT22;61465;53.652;9.792;2022-09-02T02:16:25;13.00;67.50
30244;DHT22;61465;53.652;9.792;2022-09-02T02:18:51;13.00;67.40
30244;DHT22;61465;53.652;9.792;2022-09-02T02:21:17;12.90;67.50
30244;DHT22;61465;53.652;9.792;2022-09-02T02:23:42;12.90;67.50
30244;DHT22;61465;53.652;9.792;2022-09-02T02:26:08;12.90;67.60
30244;DHT22;61465;53.652;9.792;2022-09-02T02:28:34;12.80;67.50
30244;DHT22;61465;53.652;9.792;2022-09-02T02:31:00;12.80;67.70
30244;DHT22;61465;53.652;9.792;2022-09-02T02:33:26;12.80;67.70
30244;DHT22;61465;53.652;9.792;2022-09-02T02:35:54;12.70;67.80
30244;DHT22;61465;53.652;9.792;2022-09-02T02:38:20;12.80;68.00
30244;DHT22;61465;53.652;9.792;2022-09-02T02:40:46;12.80;68.00
30244;DHT22;61465;53.652;9.792;2022-09-02T02:43:12;12.80;68.00
30244;DHT22;61465;53.652;9.792;2022-09-02T02:45:38;12.70;68.10
30244;DHT22;61465;53.652;9.792;2022-09-02T02:48:04;12.80;68.10
30244;DHT22;61465;53.652;9.792;2022-09-02T02:50:30;12.70;68.20
30244;DHT22;61465;53.652;9.792;2022-09-02T02:52:56;12.60;68.20
30244;DHT22;61465;53.652;9.792;2022-09-02T02:55:22;12.70;68.50
30244;DHT22;61465;53.652;9.792;2022-09-02T02:57:49;12.70;68.50
30244;DHT22;61465;53.652;9.792;2022-09-02T03:00:34;12.70;68.50
30244;DHT22;61465;53.652;9.792;2022-09-02T03:03:06;12.50;68.50
30244;DHT22;61465;53.652;9.792;2022-09-02T03:05:33;12.50;68.70
30244;DHT22;61465;53.652;9.792;2022-09-02T03:08:02;12.60;68.80
30244;DHT22;61465;53.652;9.792;2022-09-02T03:10:28;12.50;68.70
30244;DHT22;61465;53.652;9.792;2022-09-02T03:12:57;12.50;68.60
30244;DHT22;61465;53.652;9.792;2022-09-02T03:15:24;12.50;68.90
30244;DHT22;61465;53.652;9.792;2022-09-02T03:17:52;12.40;69.00
30244;DHT22;61465;53.652;9.792;2022-09-02T03:20:18;12.40;69.00
30244;DHT22;61465;53.652;9.792;2022-09-02T03:22:47;12.40;69.10
30244;DHT22;61465;53.652;9.792;2022-09-02T03:25:16;12.40;69.20
30244;DHT22;61465;53.652;9.792;2022-09-02T03:27:43;12.50;69.30
30244;DHT22;61465;53.652;9.792;2022-09-02T03:30:16;12.40;69.30
30244;DHT22;61465;53.652;9.792;2022-09-02T03:32:42;12.40;69.20
30244;DHT22;61465;53.652;9.792;2022-09-02T03:35:13;12.40;69.30
30244;DHT22;61465;53.652;9.792;2022-09-02T03:37:40;12.30;69.30
30244;DHT22;61465;53.652;9.792;2022-09-02T03:40:09;12.30;69.40
30244;DHT22;61465;53.652;9.792;2022-09-02T03:42:35;12.30;69.50
30244;DHT22;61465;53.652;9.792;2022-09-02T03:45:01;12.20;69.60
30244;DHT22;61465;53.652;9.792;2022-09-02T03:47:27;12.20;69.60
30244;DHT22;61465;53.652;9.792;2022-09-02T03:49:54;12.20;69.60
30244;DHT22;61465;53.652;9.792;2022-09-02T03:52:20;12.20;69.90
30244;DHT22;61465;53.652;9.792;2022-09-02T03:54:45;12.20;69.70
30244;DHT22;61465;53.652;9.792;2022-09-02T03:57:11;12.20;69.80
30244;DHT22;61465;53.652;9.792;2022-09-02T03:59:37;12.20;69.80
30244;DHT22;61465;53.652;9.792;2022-09-02T04:02:03;12.10;69.70
30244;DHT22;61465;53.652;9.792;2022-09-02T04:04:29;12.10;69.80
30244;DHT22;61465;53.652;9.792;2022-09-02T04:06:55;12.10;69.90
30244;DHT22;61465;53.652;9.792;2022-09-02T04:09:21;12.10;69.90
30244;DHT22;61465;53.652;9.792;2022-09-02T04:11:47;12.10;69.90
30244;DHT22;61465;53.652;9.792;2022-09-02T04:14:12;12.10;70.40
30244;DHT22;61465;53.652;9.792;2022-09-02T04:16:38;12.10;70.00
30244;DHT22;61465;53.652;9.792;2022-09-02T04:19:04;12.00;70.00
30244;DHT22;61465;53.652;9.792;2022-09-02T04:21:32;12.00;70.00
30244;DHT22;61465;53.652;9.792;2022-09-02T04:23:58;12.00;70.10
30244;DHT22;61465;53.652;9.792;2022-09-02T04:26:24;12.00;70.30
30244;DHT22;61465;53.652;9.792;2022-09-02T04:28:50;11.90;70.40
30244;DHT22;61465;53.652;9.792;2022-09-02T04:31:18;11.90;70.30
30244;DHT22;61465;53.652;9.792;2022-09-02T04:33:44;11.90;70.50
30244;DHT22;61465;53.652;9.792;2022-09-02T04:36:12;11.90;70.70
30244;DHT22;61465;53.652;9.792;2022-09-02T04:38:38;11.90;70.70
30244;DHT22;61465;53.652;9.792;2022-09-02T04:41:14;11.90;70.80
30244;DHT22;61465;53.652;9.792;2022-09-02T04:43:40;11.90;70.60
30244;DHT22;61465;53.652;9.792;2022-09-02T04:46:08;11.90;70.90
30244;DHT22;61465;53.652;9.792;2022-09-02T04:48:35;11.90;70.90
30244;DHT22;61465;53.652;9.792;2022-09-02T04:51:10;11.90;71.10
30244;DHT22;61465;53.652;9.792;2022-09-02T04:53:37;11.90;70.90
30244;DHT22;61465;53.652;9.792;2022-09-02T04:56:09;11.80;71.10
30244;DHT22;61465;53.652;9.792;2022-09-02T04:58:36;11.90;71.20
30244;DHT22;61465;53.652;9.792;2022-09-02T05:01:11;11.90;71.30
30244;DHT22;61465;53.652;9.792;2022-09-02T05:03:38;11.90;71.40
30244;DHT22;61465;53.652;9.792;2022-09-02T05:06:07;11.80;71.40
30244;DHT22;61465;53.652;9.792;2022-09-02T05:08:33;11.80;71.70
30244;DHT22;61465;53.652;9.792;2022-09-02T05:11:04;11.80;71.80
30244;DHT22;61465;53.652;9.792;2022-09-02T05:13:30;11.90;72.00
30244;DHT22;61465;53.652;9.792;2022-09-02T05:15:55;11.90;72.00
30244;DHT22;61465;53.652;9.792;2022-09-02T05:18:21;11.90;72.00
30244;DHT22;61465;53.652;9.792;2022-09-02T05:20:47;11.90;72.00
30244;DHT22;61465;53.652;9.792;2022-09-02T05:23:13;11.90;72.20
30244;DHT22;61465;53.652;9.792;2022-09-02T05:25:39;11.90;72.20
30244;DHT22;61465;53.652;9.792;2022-09-02T05:28:06;11.90;72.40
30244;DHT22;61465;53.652;9.792;2022-09-02T05:30:34;12.00;72.50
30244;DHT22;61465;53.652;9.792;2022-09-02T05:33:00;12.00;72.70
30244;DHT22;61465;53.652;9.792;2022-09-02T05:35:27;12.10;72.90
30244;DHT22;61465;53.652;9.792;2022-09-02T05:37:53;12.00;70.50
30244;DHT22;61465;53.652;9.792;2022-09-02T05:40:19;12.00;72.80
30244;DHT22;61465;53.652;9.792;2022-09-02T05:42:45;12.00;73.00
30244;DHT22;61465;53.652;9.792;2022-09-02T05:45:10;12.00;73.10
30244;DHT22;61465;53.652;9.792;2022-09-02T05:47:36;12.10;73.30
30244;DHT22;61465;53.652;9.792;2022-09-02T05:50:03;12.10;73.40
30244;DHT22;61465;53.652;9.792;2022-09-02T05:52:29;12.10;73.60
30244;DHT22;61465;53.652;9.792;2022-09-02T05:54:55;12.20;73.80
30244;DHT22;61465;53.652;9.792;2022-09-02T05:57:22;12.30;73.90
30244;DHT22;61465;53.652;9.792;2022-09-02T05:59:48;12.30;74.20
30244;DHT22;61465;53.652;9.792;2022-09-02T06:02:17;12.30;74.20
30244;DHT22;61465;53.652;9.792;2022-09-02T06:04:45;12.30;74.40
30244;DHT22;61465;53.652;9.792;2022-09-02T06:07:14;12.40;74.60
30244;DHT22;61465;53.652;9.792;2022-09-02T06:09:40;12.40;74.70
30244;DHT22;61465;53.652;9.792;2022-09-02T06:12:07;12.50;75.00
30244;DHT22;61465;53.652;9.792;2022-09-02T06:14:33;12.60;74.90
30244;DHT22;61465;53.652;9.792;2022-09-02T06:17:00;12.60;75.10
30244;DHT22;61465;53.652;9.792;2022-09-02T06:19:27;12.80;75.20
30244;DHT22;61465;53.652;9.792;2022-09-02T06:21:57;12.70;75.20
30244;DHT22;61465;53.652;9.792;2022-09-02T06:24:24;12.70;75.30
30244;DHT22;61465;53.652;9.792;2022-09-02T06:26:50;12.70;75.40
30244;DHT22;61465;53.652;9.792;2022-09-02T06:29:17;12.80;75.60
30244;DHT22;61465;53.652;9.792;2022-09-02T06:31:44;12.90;73.70
30244;DHT22;61465;53.652;9.792;2022-09-02T06:34:10;12.90;75.70
30244;DHT22;61465;53.652;9.792;2022-09-02T06:36:39;13.00;76.00
30244;DHT22;61465;53.652;9.792;2022-09-02T06:39:05;13.00;76.10
30244;DHT22;61465;53.652;9.792;2022-09-02T06:41:33;13.10;76.30
30244;DHT22;61465;53.652;9.792;2022-09-02T06:44:01;13.10;76.50
30244;DHT22;61465;53.652;9.792;2022-09-02T06:46:34;13.20;76.60
30244;DHT22;61465;53.652;9.792;2022-09-02T06:49:01;13.30;76.70
30244;DHT22;61465;53.652;9.792;2022-09-02T06:51:33;13.40;77.10
30244;DHT22;61465;53.652;9.792;2022-09-02T06:54:00;13.50;77.70
30244;DHT22;61465;53.652;9.792;2022-09-02T06:56:26;13.50;77.40
30244;DHT22;61465;53.652;9.792;2022-09-02T06:58:52;13.60;77.40
30244;DHT22;61465;53.652;9.792;2022-09-02T07:01:24;13.70;77.50
30244;DHT22;61465;53.652;9.792;2022-09-02T07:03:50;13.80;77.60
30244;DHT22;61465;53.652;9.792;2022-09-02T07:06:36;13.90;77.80
30244;DHT22;61465;53.652;9.792;2022-09-02T07:09:07;13.90;77.90
30244;DHT22;61465;53.652;9.792;2022-09-02T07:11:34;14.10;78.00
30244;DHT22;61465;53.652;9.792;2022-09-02T07:14:00;14.10;78.00
30244;DHT22;61465;53.652;9.792;2022-09-02T07:16:28;14.20;77.90
30244;DHT22;61465;53.652;9.792;2022-09-02T07:18:55;14.30;78.80
30244;DHT22;61465;53.652;9.792;2022-09-02T07:21:20;14.40;78.40
30244;DHT22;61465;53.652;9.792;2022-09-02T07:23:46;14.40;78.30
30244;DHT22;61465;53.652;9.792;2022-09-02T07:26:13;14.50;78.30
30244;DHT22;61465;53.652;9.792;2022-09-02T07:28:39;14.60;78.40
30244;DHT22;61465;53.652;9.792;2022-09-02T07:31:12;14.70;78.70
30244;DHT22;61465;53.652;9.792;2022-09-02T07:33:39;14.90;78.90
30244;DHT22;61465;53.652;9.792;2022-09-02T07:36:05;14.90;79.10
30244;DHT22;61465;53.652;9.792;2022-09-02T07:38:32;15.10;79.10
30244;DHT22;61465;53.652;9.792;2022-09-02T07:40:59;15.20;79.00
30244;DHT22;61465;53.652;9.792;2022-09-02T07:43:25;15.30;79.10
30244;DHT22;61465;53.652;9.792;2022-09-02T07:45:52;15.50;79.30
30244;DHT22;61465;53.652;9.792;2022-09-02T07:48:21;15.80;80.10
30244;DHT22;61465;53.652;9.792;2022-09-02T07:50:47;16.30;80.00
30244;DHT22;61465;53.652;9.792;2022-09-02T07:53:13;16.70;79.70
30244;DHT22;61465;53.652;9.792;2022-09-02T07:55:41;17.20;79.60
30244;DHT22;61465;53.652;9.792;2022-09-02T07:58:07;17.70;79.50
30244;DHT22;61465;53.652;9.792;2022-09-02T08:00:33;18.20;79.80
30244;DHT22;61465;53.652;9.792;2022-09-02T08:02:59;18.70;79.60
30244;DHT22;61465;53.652;9.792;2022-09-02T08:05:25;19.00;79.40
30244;DHT22;61465;53.652;9.792;2022-09-02T08:07:51;19.40;79.20
30244;DHT22;61465;53.652;9.792;2022-09-02T08:10:16;19.70;78.90
30244;DHT22;61465;53.652;9.792;2022-09-02T08:12:43;20.10;78.80
30244;DHT22;61465;53.652;9.792;2022-09-02T08:15:10;20.40;78.50
30244;DHT22;61465;53.652;9.792;2022-09-02T08:17:37;20.60;78.70
30244;DHT22;61465;53.652;9.792;2022-09-02T08:20:09;20.90;78.30
30244;DHT22;61465;53.652;9.792;2022-09-02T08:22:36;21.10;78.10
30244;DHT22;61465;53.652;9.792;2022-09-02T08:25:02;21.40;77.10
30244;DHT22;61465;53.652;9.792;2022-09-02T08:27:28;21.50;77.30
30244;DHT22;61465;53.652;9.792;2022-09-02T08:29:54;21.70;77.30
30244;DHT22;61465;53.652;9.792;2022-09-02T08:32:20;21.80;76.80
30244;DHT22;61465;53.652;9.792;2022-09-02T08:34:45;22.00;77.20
30244;DHT22;61465;53.652;9.792;2022-09-02T08:37:11;22.20;77.30
30244;DHT22;61465;53.652;9.792;2022-09-02T08:39:37;22.40;77.50
30244;DHT22;61465;53.652;9.792;2022-09-02T08:42:13;22.60;76.80
30244;DHT22;61465;53.652;9.792;2022-09-02T08:44:42;22.80;77.20
30244;DHT22;61465;53.652;9.792;2022-09-02T08:47:15;23.00;77.10
30244;DHT22;61465;53.652;9.792;2022-09-02T08:49:47;23.10;77.10
30244;DHT22;61465;53.652;9.792;2022-09-02T08:52:21;23.30;76.90
30244;DHT22;61465;53.652;9.792;2022-09-02T08:54:54;23.50;77.10
30244;DHT22;61465;53.652;9.792;2022-09-02T08:57:21;23.70;76.70
30244;DHT22;61465;53.652;9.792;2022-09-02T08:59:50;23.80;75.90
30244;DHT22;61465;53.652;9.792;2022-09-02T09:02:38;23.90;75.80
30244;DHT22;61465;53.652;9.792;2022-09-02T09:08:12;24.10;75.50
30244;DHT22;61465;53.652;9.792;2022-09-02T09:11:04;24.20;75.80
30244;DHT22;61465;53.652;9.792;2022-09-02T09:13:51;24.30;76.60
30244;DHT22;61465;53.652;9.792;2022-09-02T09:21:41;24.50;73.90
30244;DHT22;61465;53.652;9.792;2022-09-02T09:26:44;24.50;72.50
30244;DHT22;61465;53.652;9.792;2022-09-02T09:29:11;24.40;71.70
30244;DHT22;61465;53.652;9.792;2022-09-02T09:31:38;24.30;75.30
30244;DHT22;61465;53.652;9.792;2022-09-02T09:34:06;24.20;72.70
30244;DHT22;61465;53.652;9.792;2022-09-02T09:36:43;24.30;72.90
30244;DHT22;61465;53.652;9.792;2022-09-02T09:39:28;24.40;73.80
30244;DHT22;61465;53.652;9.792;2022-09-02T09:41:59;24.60;74.50
30244;DHT22;61465;53.652;9.792;2022-09-02T09:44:42;24.70;73.40
30244;DHT22;61465;53.652;9.792;2022-09-02T09:47:16;24.90;73.90
30244;DHT22;61465;53.652;9.792;2022-09-02T09:49:50;25.10;72.90
30244;DHT22;61465;53.652;9.792;2022-09-02T09:52:27;25.10;72.40
30244;DHT22;61465;53.652;9.792;2022-09-02T09:55:20;25.20;72.70
30244;DHT22;61465;53.652;9.792;2022-09-02T09:57:49;25.20;73.10
30244;DHT22;61465;53.652;9.792;2022-09-02T10:00:30;25.10;70.40
30244;DHT22;61465;53.652;9.792;2022-09-02T10:02:59;25.00;71.50
30244;DHT22;61465;53.652;9.792;2022-09-02T10:11:01;25.00;71.60
30244;DHT22;61465;53.652;9.792;2022-09-02T10:13:32;24.90;70.90
30244;DHT22;61465;53.652;9.792;2022-09-02T10:16:14;25.00;69.30
30244;DHT22;61465;53.652;9.792;2022-09-02T10:18:50;24.80;69.50
30244;DHT22;61465;53.652;9.792;2022-09-02T10:26:53;24.90;69.00
30244;DHT22;61465;53.652;9.792;2022-09-02T10:29:57;24.80;69.20
30244;DHT22;61465;53.652;9.792;2022-09-02T10:35:24;24.70;67.90
30244;DHT22;61465;53.652;9.792;2022-09-02T10:46:21;24.30;67.00
30244;DHT22;61465;53.652;9.792;2022-09-02T10:54:12;23.90;66.40
30244;DHT22;61465;53.652;9.792;2022-09-02T10:56:48;23.90;65.70
30244;DHT22;61465;53.652;9.792;2022-09-02T10:59:23;23.90;65.30
30244;DHT22;61465;53.652;9.792;2022-09-02T11:02:05;23.80;65.50
30244;DHT22;61465;53.652;9.792;2022-09-02T11:04:42;23.70;65.00
30244;DHT22;61465;53.652;9.792;2022-09-02T11:07:15;23.70;64.60
30244;DHT22;61465;53.652;9.792;2022-09-02T11:09:52;23.50;63.60
30244;DHT22;61465;53.652;9.792;2022-09-02T11:15:10;23.10;63.40
30244;DHT22;61465;53.652;9.792;2022-09-02T11:17:41;23.00;64.90
30244;DHT22;61465;53.652;9.792;2022-09-02T11:20:29;23.00;64.20
30244;DHT22;61465;53.652;9.792;2022-09-02T11:23:19;22.90;64.20
30244;DHT22;61465;53.652;9.792;2022-09-02T11:28:35;22.80;63.50
30244;DHT22;61465;53.652;9.792;2022-09-02T11:31:13;22.70;63.50
30244;DHT22;61465;53.652;9.792;2022-09-02T11:36:17;22.70;63.20
30244;DHT22;61465;53.652;9.792;2022-09-02T11:39:32;22.70;63.70
30244;DHT22;61465;53.652;9.792;2022-09-02T11:45:07;22.70;63.90
30244;DHT22;61465;53.652;9.792;2022-09-02T11:53:25;22.70;63.30
30244;DHT22;61465;53.652;9.792;2022-09-02T12:03:53;22.60;63.50
30244;DHT22;61465;53.652;9.792;2022-09-02T12:06:21;22.60;63.20
30244;DHT22;61465;53.652;9.792;2022-09-02T12:11:39;22.70;61.90
30244;DHT22;61465;53.652;9.792;2022-09-02T12:14:59;22.60;62.60
30244;DHT22;61465;53.652;9.792;2022-09-02T12:17:05;22.70;62.10
30244;DHT22;61465;53.652;9.792;2022-09-02T12:19:44;22.60;62.00
30244;DHT22;61465;53.652;9.792;2022-09-02T12:24:53;22.60;62.20
30244;DHT22;61465;53.652;9.792;2022-09-02T12:27:31;22.60;62.10
30244;DHT22;61465;53.652;9.792;2022-09-02T12:29:58;22.60;62.00
30244;DHT22;61465;53.652;9.792;2022-09-02T12:33:10;22.60;61.90
30244;DHT22;61465;53.652;9.792;2022-09-02T12:43:46;22.60;62.00
30244;DHT22;61465;53.652;9.792;2022-09-02T12:46:20;22.60;61.90
30244;DHT22;61465;53.652;9.792;2022-09-02T12:51:59;22.70;61.80
30244;DHT22;61465;53.652;9.792;2022-09-02T12:54:45;22.80;61.70
30244;DHT22;61465;53.652;9.792;2022-09-02T12:57:15;22.80;61.30
30244;DHT22;61465;53.652;9.792;2022-09-02T12:59:42;22.80;60.70
30244;DHT22;61465;53.652;9.792;2022-09-02T13:02:51;22.90;60.80
30244;DHT22;61465;53.652;9.792;2022-09-02T13:05:20;22.90;60.70
30244;DHT22;61465;53.652;9.792;2022-09-02T13:20:39;22.60;60.90
30244;DHT22;61465;53.652;9.792;2022-09-02T13:26:42;22.50;60.80
30244;DHT22;61465;53.652;9.792;2022-09-02T13:31:58;22.40;59.80
30244;DHT22;61465;53.652;9.792;2022-09-02T13:34:24;22.50;60.20
30244;DHT22;61465;53.652;9.792;2022-09-02T13:36:50;22.40;59.80
30244;DHT22;61465;53.652;9.792;2022-09-02T13:39:17;22.50;59.80
30244;DHT22;61465;53.652;9.792;2022-09-02T13:41:43;22.60;59.40
30244;DHT22;61465;53.652;9.792;2022-09-02T13:44:18;22.60;60.50
30244;DHT22;61465;53.652;9.792;2022-09-02T13:46:51;22.60;59.30
30244;DHT22;61465;53.652;9.792;2022-09-02T13:49:44;22.60;59.80
30244;DHT22;61465;53.652;9.792;2022-09-02T13:52:20;22.50;59.10
30244;DHT22;61465;53.652;9.792;2022-09-02T13:54:50;22.40;59.00
30244;DHT22;61465;53.652;9.792;2022-09-02T13:57:19;22.30;59.00
30244;DHT22;61465;53.652;9.792;2022-09-02T13:59:48;22.40;59.00
30244;DHT22;61465;53.652;9.792;2022-09-02T14:02:23;22.30;59.00
30244;DHT22;61465;53.652;9.792;2022-09-02T14:05:14;22.30;58.90
30244;DHT22;61465;53.652;9.792;2022-09-02T14:07:44;22.40;58.80
30244;DHT22;61465;53.652;9.792;2022-09-02T14:10:12;22.40;59.00
30244;DHT22;61465;53.652;9.792;2022-09-02T14:12:40;22.50;59.10
30244;DHT22;61465;53.652;9.792;2022-09-02T14:15:08;22.60;58.80
30244;DHT22;61465;53.652;9.792;2022-09-02T14:17:34;22.70;58.50
30244;DHT22;61465;53.652;9.792;2022-09-02T14:20:20;22.70;58.80
30244;DHT22;61465;53.652;9.792;2022-09-02T14:22:57;22.70;58.50
30244;DHT22;61465;53.652;9.792;2022-09-02T14:25:24;22.70;58.70
30244;DHT22;61465;53.652;9.792;2022-09-02T14:27:52;22.70;58.20
30244;DHT22;61465;53.652;9.792;2022-09-02T14:30:35;22.70;58.00
30244;DHT22;61465;53.652;9.792;2022-09-02T14:33:17;22.60;58.40
30244;DHT22;61465;53.652;9.792;2022-09-02T14:36:07;22.50;58.50
30244;DHT22;61465;53.652;9.792;2022-09-02T14:41:18;22.40;58.00
30244;DHT22;61465;53.652;9.792;2022-09-02T14:43:46;22.50;59.10
30244;DHT22;61465;53.652;9.792;2022-09-02T14:46:28;22.50;58.00
30244;DHT22;61465;53.652;9.792;2022-09-02T14:49:01;22.60;58.40
30244;DHT22;61465;53.652;9.792;2022-09-02T14:51:34;22.60;58.20
30244;DHT22;61465;53.652;9.792;2022-09-02T14:54:01;22.60;58.20
30244;DHT22;61465;53.652;9.792;2022-09-02T14:57:03;22.60;57.90
30244;DHT22;61465;53.652;9.792;2022-09-02T14:59:28;22.70;58.50
30244;DHT22;61465;53.652;9.792;2022-09-02T15:01:55;22.60;57.30
30244;DHT22;61465;53.652;9.792;2022-09-02T15:04:22;22.60;57.10
30244;DHT22;61465;53.652;9.792;2022-09-02T15:06:48;22.60;57.00
30244;DHT22;61465;53.652;9.792;2022-09-02T15:09:15;22.50;57.00
30244;DHT22;61465;53.652;9.792;2022-09-02T15:11:44;22.40;56.90
30244;DHT22;61465;53.652;9.792;2022-09-02T15:14:10;22.50;56.80
30244;DHT22;61465;53.652;9.792;2022-09-02T15:16:37;22.40;56.60
30244;DHT22;61465;53.652;9.792;2022-09-02T15:19:03;22.30;57.60
30244;DHT22;61465;53.652;9.792;2022-09-02T15:21:28;22.30;56.50
30244;DHT22;61465;53.652;9.792;2022-09-02T15:23:54;22.30;56.40
30244;DHT22;61465;53.652;9.792;2022-09-02T15:26:19;22.30;56.50
30244;DHT22;61465;53.652;9.792;2022-09-02T15:28:45;22.30;56.50
30244;DHT22;61465;53.652;9.792;2022-09-02T15:31:11;22.40;56.30
30244;DHT22;61465;53.652;9.792;2022-09-02T15:33:37;22.40;56.20
30244;DHT22;61465;53.652;9.792;2022-09-02T15:36:10;22.40;56.10
30244;DHT22;61465;53.652;9.792;2022-09-02T15:38:38;22.30;56.40
30244;DHT22;61465;53.652;9.792;2022-09-02T15:41:24;22.30;55.60
30244;DHT22;61465;53.652;9.792;2022-09-02T15:43:50;22.20;56.30
30244;DHT22;61465;53.652;9.792;2022-09-02T15:46:28;22.20;55.60
30244;DHT22;61465;53.652;9.792;2022-09-02T15:48:55;22.10;56.30
30244;DHT22;61465;53.652;9.792;2022-09-02T15:51:22;22.10;55.60
30244;DHT22;61465;53.652;9.792;2022-09-02T15:54:07;22.10;55.60
30244;DHT22;61465;53.652;9.792;2022-09-02T15:56:34;22.10;56.10
30244;DHT22;61465;53.652;9.792;2022-09-02T15:59:10;22.10;55.70
30244;DHT22;61465;53.652;9.792;2022-09-02T16:01:38;22.20;55.80
30244;DHT22;61465;53.652;9.792;2022-09-02T16:04:05;22.20;55.70
30244;DHT22;61465;53.652;9.792;2022-09-02T16:06:33;22.10;55.30
30244;DHT22;61465;53.652;9.792;2022-09-02T16:09:01;22.20;55.40
30244;DHT22;61465;53.652;9.792;2022-09-02T16:11:27;22.10;55.20
30244;DHT22;61465;53.652;9.792;2022-09-02T16:13:53;22.00;56.10
30244;DHT22;61465;53.652;9.792;2022-09-02T16:16:18;22.10;55.30
30244;DHT22;61465;53.652;9.792;2022-09-02T16:18:49;22.10;55.20
30244;DHT22;61465;53.652;9.792;2022-09-02T16:21:15;22.10;55.40
30244;DHT22;61465;53.652;9.792;2022-09-02T16:23:41;22.20;55.10
30244;DHT22;61465;53.652;9.792;2022-09-02T16:26:09;22.10;55.00
30244;DHT22;61465;53.652;9.792;2022-09-02T16:28:36;22.10;55.10
30244;DHT22;61465;53.652;9.792;2022-09-02T16:31:04;22.20;55.20
30244;DHT22;61465;53.652;9.792;2022-09-02T16:33:30;22.10;55.00
30244;DHT22;61465;53.652;9.792;2022-09-02T16:35:55;22.10;54.90
30244;DHT22;61465;53.652;9.792;2022-09-02T16:38:21;22.10;54.90
30244;DHT22;61465;53.652;9.792;2022-09-02T16:40:55;22.20;54.70
30244;DHT22;61465;53.652;9.792;2022-09-02T16:43:22;22.10;54.90
30244;DHT22;61465;53.652;9.792;2022-09-02T16:45:48;22.20;54.30
30244;DHT22;61465;53.652;9.792;2022-09-02T16:48:18;22.20;54.40
30244;DHT22;61465;53.652;9.792;2022-09-02T16:50:45;22.10;54.40
30244;DHT22;61465;53.652;9.792;2022-09-02T16:53:11;22.10;54.30
30244;DHT22;61465;53.652;9.792;2022-09-02T16:55:41;22.00;54.20
30244;DHT22;61465;53.652;9.792;2022-09-02T16:58:08;22.00;54.00
30244;DHT22;61465;53.652;9.792;2022-09-02T17:00:37;22.00;53.90
30244;DHT22;61465;53.652;9.792;2022-09-02T17:03:05;22.00;54.10
30244;DHT22;61465;53.652;9.792;2022-09-02T17:05:30;22.00;53.80
30244;DHT22;61465;53.652;9.792;2022-09-02T17:07:56;22.00;53.90
30244;DHT22;61465;53.652;9.792;2022-09-02T17:10:23;21.90;54.00
30244;DHT22;61465;53.652;9.792;2022-09-02T17:12:48;22.00;53.80
30244;DHT22;61465;53.652;9.792;2022-09-02T17:15:14;21.80;53.60
30244;DHT22;61465;53.652;9.792;2022-09-02T17:17:40;21.80;53.60
30244;DHT22;61465;53.652;9.792;2022-09-02T17:20:07;21.70;53.30
30244;DHT22;61465;53.652;9.792;2022-09-02T17:22:32;21.70;53.40
30244;DHT22;61465;53.652;9.792;2022-09-02T17:24:58;21.60;53.30
30244;DHT22;61465;53.652;9.792;2022-09-02T17:27:24;21.60;53.10